Time;durP1;ratioP1;P1;durP2;ratioP2;P2;SDS_P1;SDS_P2;PMS_P1;PMS_P2;Temp;Humidity;BMP_temperature;BMP_pressure;BME280_temperature;BME280_humidity;BME280_pressure;Samples;Min_cycle;Max_cycle;Signal;HPM_P1;HPM_P2
2022/10/09 00:01:04;;;;;;;10.30;6.03;;;;;;;14.24;58.32;98272.28;5032196;28;20429;-74
2022/10/09 00:03:30;;;;;;;11.43;6.40;;;;;;;14.23;57.83;98271.47;5005855;28;20728;-74
2022/10/09 00:05:56;;;;;;;10.23;6.63;;;;;;;14.06;57.69;98267.81;5039048;28;20508;-73
2022/10/09 00:08:21;;;;;;;15.27;6.63;;;;;;;14.06;58.11;98269.63;5031887;28;20418;-74
2022/10/09 00:10:47;;;;;;;7.97;5.20;;;;;;;14.08;58.38;98263.22;5030837;28;20215;-74
2022/10/09 00:13:13;;;;;;;12.27;5.90;;;;;;;14.09;57.97;98259.63;5031453;28;20191;-73
2022/10/09 00:15:40;;;;;;;9.83;5.90;;;;;;;14.11;58.10;98262.94;5030135;28;20449;-74
2022/10/09 00:18:07;;;;;;;8.67;5.50;;;;;;;14.04;58.26;98261.91;5030684;28;20199;-73
2022/10/09 00:20:40;;;;;;;9.37;5.93;;;;;;;14.06;57.98;98259.09;5035253;28;20422;-73
2022/10/09 00:23:06;;;;;;;10.17;4.83;;;;;;;14.06;57.93;98259.09;5034247;28;20457;-73
2022/10/09 00:25:32;;;;;;;10.40;6.17;;;;;;;14.06;58.04;98251.19;5031493;28;20419;-74
2022/10/09 00:27:58;;;;;;;7.10;5.37;;;;;;;14.10;57.81;98249.94;5029987;28;20183;-74
2022/10/09 00:30:23;;;;;;;8.87;6.07;;;;;;;14.10;57.98;98261.28;5035919;28;20836;-74
2022/10/09 00:32:49;;;;;;;11.37;5.30;;;;;;;13.96;58.03;98254.72;5031492;28;20538;-74
2022/10/09 00:35:14;;;;;;;12.00;5.47;;;;;;;13.92;58.15;98253.34;5030971;28;20725;-74
2022/10/09 00:37:40;;;;;;;9.33;5.40;;;;;;;13.92;58.14;98244.63;5029806;28;20750;-74
2022/10/09 00:40:06;;;;;;;9.20;4.90;;;;;;;13.85;58.40;98249.66;5030638;28;20282;-74
2022/10/09 00:42:31;;;;;;;9.70;5.07;;;;;;;13.89;58.54;98245.72;5019579;28;20249;-74
2022/10/09 00:44:59;;;;;;;6.77;5.00;;;;;;;13.83;58.43;98246.34;5031161;28;20430;-74
2022/10/09 00:47:33;;;;;;;10.00;5.23;;;;;;;13.84;58.41;98237.47;5029082;28;20180;-74
2022/10/09 00:50:24;;;;;;;10.50;5.67;;;;;;;13.80;58.19;98246.63;5029025;28;20960;-74
2022/10/09 00:52:53;;;;;;;6.93;4.87;;;;;;;13.71;57.90;98242.25;5025997;28;20449;-74
2022/10/09 00:55:19;;;;;;;8.43;5.30;;;;;;;13.75;57.49;98238.31;5039088;28;21024;-73
2022/10/09 00:57:45;;;;;;;8.43;5.73;;;;;;;13.71;57.65;98236.97;5028146;28;20459;-73
2022/10/09 01:00:12;;;;;;;8.30;5.20;;;;;;;13.66;57.81;98242.69;5030881;28;20476;-74
2022/10/09 01:02:37;;;;;;;10.57;5.83;;;;;;;13.62;57.63;98236.88;5030560;28;20756;-74
2022/10/09 01:05:04;;;;;;;11.00;5.30;;;;;;;13.53;57.40;98235.13;5030453;28;20426;-73
2022/10/09 01:07:48;;;;;;;10.93;5.63;;;;;;;13.56;57.61;98228.72;5028955;28;20191;-73
2022/10/09 01:10:22;;;;;;;8.47;5.47;;;;;;;13.56;57.53;98226.94;5030502;28;20426;-74
2022/10/09 01:12:58;;;;;;;8.63;5.10;;;;;;;13.52;57.49;98230.81;5030327;28;20429;-72
2022/10/09 01:15:30;;;;;;;13.80;5.57;;;;;;;13.53;57.63;98235.13;5030786;28;20442;-72
2022/10/09 01:18:04;;;;;;;8.50;5.20;;;;;;;13.51;57.79;98221.25;5027963;28;20566;-74
2022/10/09 01:20:42;;;;;;;10.70;5.37;;;;;;;13.50;57.98;98219.59;5023882;28;20460;-71
2022/10/09 01:23:31;;;;;;;9.50;4.80;;;;;;;13.38;57.58;98218.94;5040193;28;20443;-74
2022/10/09 01:26:14;;;;;;;12.97;5.33;;;;;;;13.35;57.25;98221.88;5037441;28;20513;-74
2022/10/09 01:28:43;;;;;;;11.37;5.97;;;;;;;13.36;57.53;98224.34;5022026;28;20418;-73
2022/10/09 01:31:09;;;;;;;6.40;4.97;;;;;;;13.37;57.34;98225.19;5029021;28;20452;-73
2022/10/09 01:33:35;;;;;;;7.60;4.97;;;;;;;13.33;57.62;98221.16;5028950;28;20480;-74
2022/10/09 01:36:01;;;;;;;14.13;5.23;;;;;;;13.28;57.46;98216.34;5033340;28;20423;-76
2022/10/09 01:38:27;;;;;;;7.67;5.10;;;;;;;13.23;57.70;98210.69;5033629;28;20546;-73
2022/10/09 01:40:53;;;;;;;5.97;5.30;;;;;;;13.18;57.65;98219.00;5016587;28;20179;-73
2022/10/09 01:43:19;;;;;;;8.07;5.23;;;;;;;13.13;57.65;98210.72;5030170;28;20422;-74
2022/10/09 01:45:46;;;;;;;7.40;5.00;;;;;;;13.13;57.45;98209.88;5028593;28;20191;-74
2022/10/09 01:48:19;;;;;;;10.53;4.93;;;;;;;13.15;57.32;98197.41;5028026;28;20183;-74
2022/10/09 01:50:52;;;;;;;9.93;4.87;;;;;;;13.17;57.46;98200.75;5029270;28;20438;-74
2022/10/09 01:53:18;;;;;;;7.23;4.87;;;;;;;13.17;57.17;98192.84;5029446;28;20430;-73
2022/10/09 01:55:50;;;;;;;7.47;4.60;;;;;;;13.10;57.15;98191.78;5037434;28;20484;-73
2022/10/09 01:58:18;;;;;;;6.30;4.63;;;;;;;13.10;57.29;98186.50;5031200;28;20528;-74
2022/10/09 02:00:48;;;;;;;14.30;5.40;;;;;;;13.03;57.16;98191.53;5034364;28;20429;-72
2022/10/09 02:03:15;;;;;;;8.67;5.20;;;;;;;13.03;57.10;98188.88;5032277;28;20492;-74
2022/10/09 02:05:41;;;;;;;14.20;5.27;;;;;;;12.97;56.91;98182.41;5039275;28;20417;-74
2022/10/09 02:08:09;;;;;;;8.80;5.07;;;;;;;12.93;57.25;98175.75;5034818;28;20430;-74
2022/10/09 02:10:36;;;;;;;7.43;4.90;;;;;;;12.86;57.94;98183.38;5032269;28;20422;-72
2022/10/09 02:13:01;;;;;;;7.63;4.63;;;;;;;12.88;57.44;98178.81;5031951;28;20438;-74
2022/10/09 02:15:45;;;;;;;7.80;4.80;;;;;;;12.84;57.33;98176.63;5033190;28;20933;-72
2022/10/09 02:18:12;;;;;;;11.07;5.40;;;;;;;12.84;57.53;98166.91;5031734;28;20752;-72
2022/10/09 02:20:44;;;;;;;6.90;4.80;;;;;;;12.85;57.76;98167.75;5036887;28;20422;-73
2022/10/09 02:23:10;;;;;;;6.30;5.03;;;;;;;12.83;57.48;98174.97;5035632;28;20545;-74
2022/10/09 02:25:36;;;;;;;9.00;5.63;;;;;;;12.83;57.45;98169.69;5032464;28;20508;-74
2022/10/09 02:28:03;;;;;;;8.40;5.23;;;;;;;12.77;56.80;98165.84;5032007;28;21120;-73
2022/10/09 02:30:35;;;;;;;8.60;4.90;;;;;;;12.78;57.00;98171.91;5032504;28;20698;-74
2022/10/09 02:33:00;;;;;;;10.60;5.10;;;;;;;12.74;57.29;98161.66;5032865;28;20485;-74
2022/10/09 02:35:25;;;;;;;6.10;4.40;;;;;;;12.60;56.76;98159.53;5033480;28;20466;-74
2022/10/09 02:37:51;;;;;;;7.73;5.23;;;;;;;12.55;56.96;98159.09;5031198;28;20200;-75
2022/10/09 02:40:16;;;;;;;7.70;5.43;;;;;;;12.52;57.10;98154.97;5032523;28;20266;-74
2022/10/09 02:42:42;;;;;;;6.63;5.27;;;;;;;12.57;56.73;98151.91;5039340;28;20283;-74
2022/10/09 02:45:08;;;;;;;6.90;4.93;;;;;;;12.53;57.16;98147.88;5033184;28;20764;-73
2022/10/09 02:47:33;;;;;;;6.30;4.93;;;;;;;12.57;57.28;98159.78;5036558;28;20175;-74
2022/10/09 02:49:59;;;;;;;7.60;5.20;;;;;;;12.55;57.26;98156.47;5037744;28;20468;-74
2022/10/09 02:52:24;;;;;;;6.03;4.93;;;;;;;12.57;57.12;98154.53;5025447;28;20188;-73
2022/10/09 02:54:50;;;;;;;17.70;5.17;;;;;;;12.52;57.21;98159.38;5033276;28;20211;-75
2022/10/09 02:57:15;;;;;;;9.13;5.03;;;;;;;12.49;57.33;98157.88;5033116;28;20691;-73
2022/10/09 02:59:40;;;;;;;10.70;5.30;;;;;;;12.46;57.29;98157.34;5032992;28;20180;-73
2022/10/09 03:02:06;;;;;;;6.30;5.20;;;;;;;12.47;57.10;98153.72;5032193;28;20286;-74
2022/10/09 03:04:31;;;;;;;7.20;4.90;;;;;;;12.46;57.02;98157.34;5032950;28;20255;-73
2022/10/09 03:06:57;;;;;;;5.37;4.63;;;;;;;12.37;57.07;98151.94;5031871;28;20203;-73
2022/10/09 03:09:23;;;;;;;8.10;5.07;;;;;;;12.39;57.33;98152.63;5031940;28;20217;-72
2022/10/09 03:11:49;;;;;;;9.40;5.23;;;;;;;12.34;56.86;98146.97;5032050;28;20485;-73
2022/10/09 03:14:14;;;;;;;6.60;4.80;;;;;;;12.35;57.02;98151.22;5032700;28;20222;-73
2022/10/09 03:16:39;;;;;;;8.27;5.50;;;;;;;12.38;56.92;98150.97;5030514;28;20266;-74
2022/10/09 03:19:05;;;;;;;5.60;4.67;;;;;;;12.29;57.07;98149.19;5008246;28;20202;-74
2022/10/09 03:21:30;;;;;;;8.73;5.10;;;;;;;12.33;56.91;98144.47;5033506;28;20195;-74
2022/10/09 03:23:56;;;;;;;8.40;4.93;;;;;;;12.29;56.70;98144.72;5052284;28;20185;-73
2022/10/09 03:26:24;;;;;;;6.97;5.37;;;;;;;12.26;56.86;98139.78;5042539;28;20275;-72
2022/10/09 03:28:50;;;;;;;8.43;5.10;;;;;;;12.23;56.87;98147.09;5037550;28;20179;-72
2022/10/09 03:31:17;;;;;;;10.23;5.03;;;;;;;12.16;57.07;98146.81;5027733;28;20440;-72
2022/10/09 03:33:43;;;;;;;5.70;4.50;;;;;;;12.13;57.09;98144.50;5012906;28;20931;-73
2022/10/09 03:36:09;;;;;;;5.17;4.67;;;;;;;12.13;56.84;98152.38;5012817;28;20435;-74
2022/10/09 03:38:35;;;;;;;8.10;4.30;;;;;;;12.13;56.94;98155.00;5026052;28;20689;-73
2022/10/09 03:41:02;;;;;;;6.80;4.70;;;;;;;12.13;56.78;98147.94;5032050;28;20448;-73
2022/10/09 03:43:30;;;;;;;14.43;5.57;;;;;;;12.12;56.73;98141.03;5032451;28;20721;-73
2022/10/09 03:45:55;;;;;;;6.47;4.80;;;;;;;12.10;56.92;98142.13;5032327;28;20458;-74
2022/10/09 03:48:21;;;;;;;5.80;4.60;;;;;;;11.97;56.86;98142.41;5031280;28;20410;-74
2022/10/09 03:50:47;;;;;;;6.03;4.50;;;;;;;12.02;56.83;98147.25;5037169;28;20731;-72
2022/10/09 03:53:13;;;;;;;8.00;4.63;;;;;;;12.01;57.12;98149.06;5041721;28;20290;-71
2022/10/09 03:55:39;;;;;;;6.67;4.70;;;;;;;11.96;57.31;98151.25;5051621;28;20556;-73
2022/10/09 03:58:05;;;;;;;6.30;4.30;;;;;;;11.95;57.16;98141.69;5049276;28;20464;-73
2022/10/09 04:00:31;;;;;;;7.90;5.10;;;;;;;11.95;57.27;98133.81;5051519;28;20453;-73
2022/10/09 04:02:57;;;;;;;5.87;4.60;;;;;;;11.96;57.42;98146.00;5034536;28;20480;-72
2022/10/09 04:05:22;;;;;;;6.77;4.90;;;;;;;11.96;56.96;98151.25;5040156;28;20430;-74
2022/10/09 04:07:48;;;;;;;10.70;4.80;;;;;;;11.85;57.36;98149.56;5044185;28;20176;-74
2022/10/09 04:10:13;;;;;;;8.10;4.70;;;;;;;11.89;57.09;98155.38;5049336;28;20191;-73
2022/10/09 04:12:39;;;;;;;7.90;4.30;;;;;;;11.90;56.92;98146.53;5042377;28;20231;-74
2022/10/09 04:15:05;;;;;;;7.43;4.60;;;;;;;11.86;56.96;98145.13;5046695;28;20269;-72
2022/10/09 04:17:30;;;;;;;9.73;4.97;;;;;;;11.84;56.82;98142.66;5050258;28;20689;-72
2022/10/09 04:19:55;;;;;;;6.93;4.50;;;;;;;11.90;56.77;98142.13;5034878;28;20538;-73
2022/10/09 04:22:21;;;;;;;5.53;4.57;;;;;;;11.86;56.97;98137.25;5034393;28;20290;-73
2022/10/09 04:24:46;;;;;;;5.90;4.33;;;;;;;11.85;56.95;98144.31;5043961;28;20183;-71
2022/10/09 04:27:12;;;;;;;8.40;5.10;;;;;;;11.85;56.77;98144.31;5049703;28;20587;-73
2022/10/09 04:29:38;;;;;;;5.90;4.60;;;;;;;11.80;56.65;98139.47;5050819;28;20191;-73
2022/10/09 04:32:04;;;;;;;10.20;5.30;;;;;;;11.79;56.98;98150.09;5027287;28;20625;-73
2022/10/09 04:34:29;;;;;;;6.03;4.27;;;;;;;11.74;56.70;98136.56;5023737;28;20448;-73
2022/10/09 04:36:55;;;;;;;7.20;5.63;;;;;;;11.70;56.87;98136.03;5042853;28;20187;-74
2022/10/09 04:39:20;;;;;;;18.40;6.00;;;;;;;11.67;57.00;98141.53;5038796;28;20214;-73
2022/10/09 04:41:45;;;;;;;9.43;5.67;;;;;;;11.67;56.80;98138.91;5043058;28;20245;-74
2022/10/09 04:44:11;;;;;;;9.23;6.30;;;;;;;11.65;56.96;98138.22;5051312;28;20191;-74
2022/10/09 04:46:36;;;;;;;12.63;6.80;;;;;;;11.65;56.88;98138.22;5050620;28;20179;-75
2022/10/09 04:49:02;;;;;;;9.50;7.30;;;;;;;11.57;56.97;98135.44;5037095;28;20687;-73
2022/10/09 04:51:27;;;;;;;8.17;7.00;;;;;;;11.59;57.01;98138.78;5026550;28;20527;-74
2022/10/09 04:53:54;;;;;;;8.37;6.50;;;;;;;11.60;56.92;98130.75;5040592;28;20270;-74
2022/10/09 04:56:20;;;;;;;9.80;7.17;;;;;;;11.53;57.22;98135.72;5040400;28;20180;-73
2022/10/09 04:58:46;;;;;;;9.80;7.10;;;;;;;11.53;56.83;98138.34;5044215;28;20461;-74
2022/10/09 05:01:14;;;;;;;10.33;7.03;;;;;;;11.55;56.74;98137.38;5049929;28;20257;-74
2022/10/09 05:03:40;;;;;;;9.97;7.90;;;;;;;11.58;56.79;98129.22;5050308;28;20421;-73
2022/10/09 05:06:07;;;;;;;11.17;7.80;;;;;;;11.53;56.56;98130.47;5034759;28;20440;-73
2022/10/09 05:08:33;;;;;;;13.23;6.90;;;;;;;11.45;56.87;98125.06;5041024;28;20584;-73
2022/10/09 05:11:03;;;;;;;7.60;5.83;;;;;;;11.37;57.03;98130.16;5046489;28;20509;-74
2022/10/09 05:13:36;;;;;;;9.50;6.17;;;;;;;11.32;57.05;98127.13;5049491;28;20492;-73
2022/10/09 05:16:03;;;;;;;8.17;4.80;;;;;;;11.38;57.18;98126.56;5049734;28;20433;-74
2022/10/09 05:18:29;;;;;;;7.47;5.70;;;;;;;11.39;57.28;98122.97;5030452;28;20501;-73
2022/10/09 05:20:54;;;;;;;8.60;6.13;;;;;;;11.33;57.31;98128.78;5033967;28;20964;-73
2022/10/09 05:23:19;;;;;;;11.47;6.97;;;;;;;11.28;57.14;98129.16;5048736;28;20690;-74
2022/10/09 05:26:03;;;;;;;10.40;7.23;;;;;;;11.29;57.36;98124.75;5049444;28;20611;-72
2022/10/09 05:28:28;;;;;;;10.70;6.50;;;;;;;11.27;57.06;98129.28;5032597;28;20182;-73
2022/10/09 05:30:54;;;;;;;9.47;6.87;;;;;;;11.26;57.19;98128.47;5050474;28;20448;-73
2022/10/09 05:33:19;;;;;;;9.03;6.57;;;;;;;11.30;56.95;98129.03;5041429;28;20191;-73
2022/10/09 05:36:01;;;;;;;8.00;6.03;;;;;;;11.26;57.15;98131.09;5048869;28;20280;-74
2022/10/09 05:38:27;;;;;;;9.67;5.97;;;;;;;11.25;57.01;98131.22;5046987;28;20214;-73
2022/10/09 05:40:55;;;;;;;9.50;6.13;;;;;;;11.22;57.31;98130.50;5040609;28;20848;-73
2022/10/09 05:43:28;;;;;;;11.90;6.07;;;;;;;11.16;57.22;98132.84;5048573;28;20766;-74
2022/10/09 05:45:54;;;;;;;7.60;5.87;;;;;;;11.17;57.27;98124.84;5048989;28;20547;-74
2022/10/09 05:48:20;;;;;;;6.00;5.40;;;;;;;11.19;57.05;98128.19;5049241;28;20948;-74
2022/10/09 05:50:46;;;;;;;7.77;5.70;;;;;;;11.18;57.35;98130.91;5050148;28;20270;-74
2022/10/09 05:53:13;;;;;;;7.33;5.40;;;;;;;11.20;57.33;98135.09;5049703;28;20449;-73
2022/10/09 05:55:38;;;;;;;9.43;4.50;;;;;;;11.21;57.50;98126.22;5042754;28;20278;-74
2022/10/09 05:58:04;;;;;;;5.60;4.77;;;;;;;11.22;57.53;98127.88;5034260;28;21060;-74
2022/10/09 06:00:30;;;;;;;5.90;4.67;;;;;;;11.20;57.43;98129.84;5049345;28;20266;-73
2022/10/09 06:02:55;;;;;;;9.47;4.70;;;;;;;11.22;57.48;98134.94;5050020;28;20705;-74
2022/10/09 06:05:21;;;;;;;5.23;4.13;;;;;;;11.14;57.24;98135.63;5049852;28;20433;-74
2022/10/09 06:07:46;;;;;;;14.67;5.10;;;;;;;11.12;57.47;98126.22;5049256;28;20662;-74
2022/10/09 06:10:12;;;;;;;8.97;5.07;;;;;;;11.11;57.40;98128.00;5049150;28;20472;-72
2022/10/09 06:12:38;;;;;;;7.33;5.07;;;;;;;11.10;57.49;98128.97;5049654;28;20396;-73
2022/10/09 06:15:04;;;;;;;7.23;4.97;;;;;;;11.08;57.48;98120.41;5048963;28;20211;-73
2022/10/09 06:17:31;;;;;;;7.70;5.07;;;;;;;11.15;57.77;98129.41;5049174;28;20455;-74
2022/10/09 06:19:56;;;;;;;8.60;4.70;;;;;;;11.23;57.81;98128.75;5041848;28;20434;-73
2022/10/09 06:22:22;;;;;;;7.43;5.27;;;;;;;11.34;57.94;98130.44;5040732;28;20586;-74
2022/10/09 06:24:47;;;;;;;9.83;4.80;;;;;;;11.44;58.11;98133.91;5049681;28;20223;-74
2022/10/09 06:27:13;;;;;;;10.10;5.17;;;;;;;11.49;58.19;98139.56;5036774;28;20266;-75
2022/10/09 06:29:38;;;;;;;5.87;5.27;;;;;;;11.55;58.05;98137.38;5042407;28;20183;-74
2022/10/09 06:32:04;;;;;;;11.40;5.23;;;;;;;11.63;58.22;98129.63;5049439;28;20207;-75
2022/10/09 06:34:29;;;;;;;6.50;5.13;;;;;;;11.77;58.01;98137.13;5048721;28;20341;-73
2022/10/09 06:36:54;;;;;;;7.90;5.27;;;;;;;11.89;57.81;98143.09;5046540;28;20229;-74
2022/10/09 06:39:21;;;;;;;5.47;4.97;;;;;;;11.94;58.23;98148.75;5046026;28;20609;-74
2022/10/09 06:41:47;;;;;;;9.63;5.60;;;;;;;12.06;58.48;98146.84;5043222;28;20213;-74
2022/10/09 06:44:12;;;;;;;7.67;5.83;;;;;;;12.12;57.71;98143.66;5042294;28;20426;-73
2022/10/09 06:46:39;;;;;;;10.70;6.00;;;;;;;12.14;57.94;98149.59;5052766;28;20209;-74
2022/10/09 06:49:06;;;;;;;14.50;6.20;;;;;;;12.16;58.32;98146.00;5052651;28;20288;-74
2022/10/09 06:51:32;;;;;;;8.13;6.40;;;;;;;12.28;58.45;98150.16;5052518;28;20449;-74
2022/10/09 06:53:59;;;;;;;13.00;5.70;;;;;;;12.33;58.32;98144.47;5052943;28;20437;-74
2022/10/09 06:56:27;;;;;;;9.97;6.20;;;;;;;12.40;58.79;98149.03;5041856;28;20422;-74
2022/10/09 06:58:52;;;;;;;7.37;5.43;;;;;;;12.44;58.69;98144.31;5035263;28;20473;-74
2022/10/09 07:01:23;;;;;;;7.53;5.60;;;;;;;12.54;58.87;98144.28;5051510;28;20834;-74
2022/10/09 07:04:00;;;;;;;9.53;5.63;;;;;;;12.56;58.97;98147.63;5053148;28;20197;-74
2022/10/09 07:06:28;;;;;;;9.10;6.00;;;;;;;12.58;59.93;98148.31;5051483;28;20421;-73
2022/10/09 07:08:58;;;;;;;7.13;6.27;;;;;;;12.59;59.91;98148.16;5051228;28;20417;-74
2022/10/09 07:11:32;;;;;;;16.63;6.27;;;;;;;12.68;59.91;98151.75;5052644;28;20939;-73
2022/10/09 07:14:00;;;;;;;12.00;6.60;;;;;;;12.74;60.21;98151.16;5051926;28;20440;-74
2022/10/09 07:16:27;;;;;;;11.90;7.27;;;;;;;12.85;60.37;98154.59;5052085;28;20422;-74
2022/10/09 07:18:54;;;;;;;14.80;6.90;;;;;;;12.92;60.42;98146.97;5052844;28;20464;-73
2022/10/09 07:21:19;;;;;;;11.03;6.83;;;;;;;12.98;60.09;98146.38;5042228;28;20442;-74
2022/10/09 07:23:45;;;;;;;12.47;6.70;;;;;;;13.08;59.92;98138.44;5046374;28;20853;-73
2022/10/09 07:26:13;;;;;;;9.20;6.33;;;;;;;13.10;60.43;98145.22;5051915;28;20642;-73
2022/10/09 07:28:40;;;;;;;8.87;6.17;;;;;;;13.18;60.54;98153.19;5039924;28;20190;-73
2022/10/09 07:31:05;;;;;;;9.63;6.57;;;;;;;13.23;60.75;98144.91;5052041;28;20434;-73
2022/10/09 07:33:31;;;;;;;9.13;6.80;;;;;;;13.28;60.43;98141.81;5050531;28;20551;-74
2022/10/09 07:35:58;;;;;;;10.20;6.67;;;;;;;13.33;60.73;98144.81;5039736;28;20267;-74
2022/10/09 07:38:24;;;;;;;12.60;6.90;;;;;;;13.45;60.79;98148.13;5049726;28;20206;-75
2022/10/09 07:40:50;;;;;;;8.87;6.60;;;;;;;13.55;60.97;98145.41;5048727;28;20423;-72
2022/10/09 07:43:16;;;;;;;7.60;5.87;;;;;;;13.61;60.87;98140.38;5050069;28;20771;-73
2022/10/09 07:45:42;;;;;;;8.80;6.50;;;;;;;13.76;61.09;98139.88;5051139;28;20520;-75
2022/10/09 07:48:07;;;;;;;15.87;6.33;;;;;;;13.92;60.55;98133.94;5051598;28;20290;-74
2022/10/09 07:50:33;;;;;;;8.00;6.13;;;;;;;14.15;60.08;98138.75;5060325;28;20492;-74
2022/10/09 07:52:58;;;;;;;9.83;5.50;;;;;;;14.39;59.58;98130.19;5052134;28;20234;-74
2022/10/09 07:55:23;;;;;;;8.90;5.10;;;;;;;14.65;59.01;98130.22;5052231;28;20214;-74
2022/10/09 07:57:49;;;;;;;9.13;5.40;;;;;;;14.94;57.79;98136.16;5042354;28;20674;-75
2022/10/09 08:00:15;;;;;;;8.40;4.50;;;;;;;15.21;56.85;98132.47;5048906;28;20183;-74
2022/10/09 08:02:41;;;;;;;4.70;4.30;;;;;;;15.56;56.27;98132.41;5052265;28;20199;-74
2022/10/09 08:05:06;;;;;;;5.13;4.20;;;;;;;15.90;54.70;98131.50;5051285;28;20433;-73
2022/10/09 08:07:32;;;;;;;7.70;4.20;;;;;;;16.23;52.49;98136.84;5051446;28;20183;-74
2022/10/09 08:09:57;;;;;;;10.17;4.57;;;;;;;16.59;50.93;98134.63;5052348;28;20183;-74
2022/10/09 08:12:23;;;;;;;9.17;3.70;;;;;;;16.84;49.84;98131.13;5051088;28;20340;-73
2022/10/09 08:14:48;;;;;;;8.07;4.10;;;;;;;17.11;48.96;98121.13;5045839;28;20270;-74
2022/10/09 08:17:15;;;;;;;6.00;3.73;;;;;;;17.33;46.87;98120.34;5049167;28;20211;-73
2022/10/09 08:19:40;;;;;;;3.80;3.40;;;;;;;17.61;45.93;98122.53;5051949;28;20190;-73
2022/10/09 08:22:05;;;;;;;5.23;3.87;;;;;;;17.78;45.30;98125.91;5037325;28;20447;-73
2022/10/09 08:24:31;;;;;;;8.70;3.30;;;;;;;18.00;45.94;98115.50;5051596;28;20221;-72
2022/10/09 08:26:56;;;;;;;6.00;3.70;;;;;;;18.33;44.20;98125.00;5049960;28;20642;-73
2022/10/09 08:29:22;;;;;;;9.70;3.23;;;;;;;18.56;43.69;98122.31;5040697;28;20274;-73
2022/10/09 08:31:47;;;;;;;4.67;3.27;;;;;;;18.77;42.28;98118.94;5051841;28;20379;-73
2022/10/09 08:34:13;;;;;;;5.50;3.17;;;;;;;18.62;42.21;98113.59;5051523;28;20223;-73
2022/10/09 08:36:38;;;;;;;8.00;3.60;;;;;;;18.61;41.57;98108.50;5051210;28;20194;-73
2022/10/09 08:39:04;;;;;;;7.97;3.70;;;;;;;18.90;42.11;98115.63;5049626;28;20237;-74
2022/10/09 08:41:45;;;;;;;5.50;3.40;;;;;;;19.07;40.83;98110.16;5044993;28;20209;-74
2022/10/09 08:44:24;;;;;;;5.20;3.20;;;;;;;19.11;41.45;98111.44;5049042;28;20190;-74
2022/10/09 08:46:52;;;;;;;7.10;3.70;;;;;;;19.38;41.24;98112.59;5044898;28;20421;-72
2022/10/09 08:49:21;;;;;;;5.50;3.53;;;;;;;19.68;40.56;98109.03;5033757;28;20436;-73
2022/10/09 08:51:46;;;;;;;6.50;3.37;;;;;;;19.53;39.92;98114.41;5051463;28;20445;-73
2022/10/09 08:54:18;;;;;;;11.57;3.67;;;;;;;19.79;40.38;98105.84;5051377;28;20453;-73
2022/10/09 08:56:45;;;;;;;4.43;3.03;;;;;;;20.09;40.18;98109.22;5049538;28;20187;-74
2022/10/09 08:59:11;;;;;;;7.23;2.83;;;;;;;20.16;39.42;98103.97;5037596;28;20556;-73
2022/10/09 09:02:00;;;;;;;8.40;3.43;;;;;;;20.41;39.13;98104.34;5045868;28;21133;-72
2022/10/09 09:04:37;;;;;;;7.50;3.57;;;;;;;20.67;38.67;98096.75;5044782;28;20188;-74
2022/10/09 09:07:38;;;;;;;5.50;3.00;;;;;;;20.93;38.26;98101.41;5046350;28;20467;-74
2022/10/09 09:10:14;;;;;;;5.53;3.20;;;;;;;21.07;37.63;98101.50;5042078;28;20411;-74
2022/10/09 09:12:48;;;;;;;6.50;3.47;;;;;;;21.27;37.33;98093.56;5043072;28;20867;-73
2022/10/09 09:15:50;;;;;;;5.90;3.30;;;;;;;21.56;36.97;98092.44;5049866;28;20449;-73
2022/10/09 09:18:24;;;;;;;4.93;2.97;;;;;;;21.78;36.49;98084.31;5048934;28;20468;-73
2022/10/09 09:20:52;;;;;;;6.70;3.00;;;;;;;22.05;36.26;98076.34;5044633;28;20422;-72
2022/10/09 09:23:25;;;;;;;5.53;3.17;;;;;;;22.23;35.73;98078.38;5048479;28;20831;-75
2022/10/09 09:25:50;;;;;;;4.07;2.57;;;;;;;22.36;34.93;98075.69;5038871;28;20443;-75
2022/10/09 09:28:30;;;;;;;5.40;3.40;;;;;;;22.53;34.53;98075.28;5033715;28;20426;-74
2022/10/09 09:30:59;;;;;;;7.53;2.80;;;;;;;22.40;34.27;98081.44;5045005;28;20178;-74
2022/10/09 09:33:43;;;;;;;3.40;2.10;;;;;;;22.33;34.10;98069.94;5051910;28;20422;-74
2022/10/09 09:36:39;;;;;;;3.90;2.37;;;;;;;22.17;34.15;98066.69;5033384;28;20528;-74
2022/10/09 09:39:09;;;;;;;8.17;2.40;;;;;;;22.09;33.88;98066.88;5042621;28;20527;-74
2022/10/09 09:41:35;;;;;;;5.27;2.70;;;;;;;22.31;34.18;98061.31;5043759;28;20528;-74
2022/10/09 09:44:00;;;;;;;3.77;2.20;;;;;;;22.32;33.44;98073.63;5052859;28;20432;-75
2022/10/09 09:46:28;;;;;;;2.80;1.93;;;;;;;22.65;33.27;98059.44;5048317;28;20216;-73
2022/10/09 09:48:54;;;;;;;3.20;2.00;;;;;;;22.69;32.09;98053.47;5049465;28;20282;-73
2022/10/09 09:51:28;;;;;;;5.43;3.17;;;;;;;22.63;32.05;98048.94;5048723;28;20476;-74
2022/10/09 09:53:59;;;;;;;2.97;2.10;;;;;;;22.61;31.74;98052.88;5049837;28;20550;-74
2022/10/09 09:56:33;;;;;;;5.33;2.00;;;;;;;22.72;31.99;98049.53;5048460;28;20422;-74
2022/10/09 09:58:58;;;;;;;5.27;2.07;;;;;;;22.90;31.50;98045.38;5021855;28;20848;-75
2022/10/09 10:01:29;;;;;;;4.57;2.43;;;;;;;22.88;31.80;98039.44;5049225;28;20478;-74
2022/10/09 10:03:57;;;;;;;8.23;1.80;;;;;;;22.96;31.85;98036.50;5049838;28;20182;-75
2022/10/09 10:06:33;;;;;;;2.93;2.00;;;;;;;23.22;32.28;98043.63;5049656;28;20947;-74
2022/10/09 10:09:03;;;;;;;3.90;2.20;;;;;;;23.24;31.24;98044.25;5050659;28;20429;-74
2022/10/09 10:11:30;;;;;;;6.57;2.00;;;;;;;23.40;30.86;98036.72;5046187;28;20804;-74
2022/10/09 10:13:55;;;;;;;4.97;2.07;;;;;;;23.13;30.28;98029.66;5044464;28;20417;-73
2022/10/09 10:16:26;;;;;;;4.73;1.80;;;;;;;23.19;30.90;98029.84;5049507;28;20429;-73
2022/10/09 10:18:52;;;;;;;7.50;2.53;;;;;;;23.00;30.30;98021.69;5052237;28;20249;-73
2022/10/09 10:21:19;;;;;;;5.30;1.90;;;;;;;22.75;30.93;98030.44;5044994;28;20452;-72
2022/10/09 10:23:58;;;;;;;4.40;1.70;;;;;;;23.08;31.08;98026.78;5053164;28;20429;-75
2022/10/09 10:26:27;;;;;;;2.43;1.60;;;;;;;23.29;30.61;98019.53;5043877;28;20429;-73
2022/10/09 10:29:18;;;;;;;4.00;1.87;;;;;;;23.57;30.22;98012.94;5026063;28;20426;-74
2022/10/09 10:31:53;;;;;;;3.87;1.60;;;;;;;23.62;30.01;98010.47;5038781;28;20457;-74
2022/10/09 10:34:25;;;;;;;2.70;1.60;;;;;;;23.98;30.22;98002.81;5050772;28;20437;-74
2022/10/09 10:36:56;;;;;;;2.87;1.70;;;;;;;24.13;29.63;98002.44;5050933;28;20429;-75
2022/10/09 10:39:53;;;;;;;4.23;2.00;;;;;;;24.21;29.70;97994.97;5052061;28;20426;-73
2022/10/09 10:42:23;;;;;;;3.17;2.00;;;;;;;24.39;29.21;97994.16;5042640;28;21026;-74
2022/10/09 10:45:03;;;;;;;3.60;1.67;;;;;;;24.43;29.09;97991.84;5047672;28;21013;-74
2022/10/09 10:47:33;;;;;;;2.30;1.70;;;;;;;24.45;29.39;97991.59;5052697;28;20441;-74
2022/10/09 10:49:59;;;;;;;4.80;1.70;;;;;;;24.54;29.66;97982.25;5053842;28;20475;-74
2022/10/09 10:52:46;;;;;;;4.50;1.70;;;;;;;24.59;28.71;97979.69;5051810;28;20453;-74
2022/10/09 10:55:30;;;;;;;3.50;1.93;;;;;;;24.79;28.69;97978.69;5041570;28;20465;-74
2022/10/09 10:58:25;;;;;;;2.53;1.93;;;;;;;25.06;29.17;97979.13;5027138;28;20523;-72
2022/10/09 11:00:56;;;;;;;4.73;1.60;;;;;;;24.87;27.63;97981.03;5035282;28;20460;-75
2022/10/09 11:03:39;;;;;;;4.70;1.40;;;;;;;24.50;27.93;97981.03;5053297;28;21008;-74
2022/10/09 11:06:19;;;;;;;4.70;1.87;;;;;;;24.36;27.64;97983.06;5053320;28;20455;-74
2022/10/09 11:08:58;;;;;;;4.10;2.23;;;;;;;24.48;27.71;97973.25;5041437;28;20436;-74
2022/10/09 11:11:32;;;;;;;7.10;1.93;;;;;;;24.81;27.86;97960.53;5047317;28;20438;-75
2022/10/09 11:14:25;;;;;;;4.03;1.80;;;;;;;24.83;27.68;97966.44;5048945;28;20418;-74
2022/10/09 11:17:05;;;;;;;4.00;1.60;;;;;;;24.35;27.86;97978.75;5052162;28;20424;-75
2022/10/09 11:19:58;;;;;;;3.93;1.57;;;;;;;24.62;27.96;97963.19;5053272;28;20461;-75
2022/10/09 11:22:37;;;;;;;1.90;1.53;;;;;;;24.18;28.36;97965.94;5042064;28;21043;-74
2022/10/09 11:25:25;;;;;;;3.00;1.50;;;;;;;24.15;28.23;97960.22;5048591;28;20796;-74
2022/10/09 11:27:57;;;;;;;5.10;1.60;;;;;;;23.67;28.66;97961.66;5041671;28;20427;-75
2022/10/09 11:30:25;;;;;;;3.70;1.63;;;;;;;23.46;29.03;97958.31;5050541;28;20512;-72
2022/10/09 11:33:04;;;;;;;6.63;2.23;;;;;;;23.63;29.40;97947.88;5044418;28;20446;-74
2022/10/09 11:35:38;;;;;;;3.13;1.70;;;;;;;24.01;28.95;97941.59;5019322;28;20441;-72
2022/10/09 11:38:08;;;;;;;3.80;1.50;;;;;;;23.76;28.95;97942.44;5045394;28;20582;-73
2022/10/09 11:40:37;;;;;;;3.20;1.57;;;;;;;23.66;29.70;97942.09;5034211;28;20418;-73